Pagina principale
METAR-TAF:

METAR-TAF

Aeroporti :

Biserta, Tunisia

latitudine: 37-15N, longitudine: 009-48E, altezza: 5 m

Osservazione

Il bollettino è stato emesso 41 minuti fa, alle 14:00 UTC
Vento 11 kt da ovest
Temperature 19°C
Umidità 34%
Pressione 1011 hPa
Visibilità 10 km o più
Poco nuvoloso ad un'altezza di 2000 ft

METAR: DTTB 211400Z 27011KT 9999 FEW020 19/03 Q1011

Ora: 15:41 (14:41 UTC)

Previsione

Il bollettino è stato emesso 2 ore e 41 minuti fa, alle 12:00 UTC
Previsione valida dal 21 alle 13 UTC al 21 alle 22 UTC
Vento 6 kt da sud/sud-ovest
Visibilità 10 km o più
Poco nuvoloso ad un'altezza di 2000 ft

TAF: DTTB 211200Z 2113/2122 21006KT 9999 FEW020

Osservazioni e previsioni meteorologiche di più di 4000 aeroporti (messaggi METAR e TAF).

Le stazioni disponibili sono rappresentate dai dischi gialli e rossi sulla carta.

Puntare il mouse per vedere il nome della stazione.

Clicca sopra per visualizzare le osservazioni e previsioni meteorologiche.

Per cambiare la mappa : fare clic sui pulsanti verdi con una croce nera per ingrandire, il pulsante verde con un trattino per diminuire, o sulla freccia verde per le mappe adiacenti.


METAR-TAF: